Time;durP1;ratioP1;P1;durP2;ratioP2;P2;SDS_P1;SDS_P2;PMS_P1;PMS_P2;Temp;Humidity;BMP_temperature;BMP_pressure;BME280_temperature;BME280_humidity;BME280_pressure;Samples;Min_cycle;Max_cycle;Signal;HPM_P1;HPM_P2
2023/04/25 00:03:49;;;;;;;8.17;5.20;;;;;7.80;95611.00;;;;8321641;28;20241;-75
2023/04/25 00:07:53;;;;;;;9.43;4.60;;;;;7.70;95599.00;;;;8323912;28;20201;-76
2023/04/25 00:11:56;;;;;;;8.87;5.50;;;;;7.70;95605.00;;;;8314851;28;20296;-75
2023/04/25 00:16:06;;;;;;;7.13;4.20;;;;;7.70;95608.00;;;;8319739;28;20201;-74
2023/04/25 00:20:15;;;;;;;8.93;4.50;;;;;7.70;95603.00;;;;8318437;28;20189;-75
2023/04/25 00:24:21;;;;;;;10.40;4.50;;;;;7.70;95605.00;;;;8318240;28;20240;-73
2023/04/25 00:28:24;;;;;;;7.53;4.50;;;;;7.70;95617.00;;;;8321957;28;20201;-75
2023/04/25 00:32:27;;;;;;;8.50;4.33;;;;;7.60;95605.00;;;;8320180;28;20194;-76
2023/04/25 00:36:32;;;;;;;7.40;5.20;;;;;7.60;95605.00;;;;8324071;28;20670;-75
2023/04/25 00:40:39;;;;;;;9.93;4.47;;;;;7.60;95602.00;;;;8323461;28;20251;-76
2023/04/25 00:44:46;;;;;;;6.07;4.43;;;;;7.60;95596.00;;;;8320399;28;20264;-76
2023/04/25 00:48:52;;;;;;;4.97;3.70;;;;;7.60;95594.00;;;;8321383;28;20259;-74
2023/04/25 00:52:58;;;;;;;6.87;4.40;;;;;7.60;95590.00;;;;8322013;28;20201;-76
2023/04/25 00:57:02;;;;;;;6.40;5.20;;;;;7.60;95587.00;;;;8324721;28;20243;-75
2023/04/25 01:01:06;;;;;;;5.17;4.00;;;;;7.60;95586.00;;;;8319794;28;20328;-75
2023/04/25 01:05:10;;;;;;;8.53;4.50;;;;;7.60;95586.00;;;;8322626;28;20287;-75
2023/04/25 01:09:15;;;;;;;4.33;3.77;;;;;7.50;95581.00;;;;8319445;28;20193;-76
2023/04/25 01:13:18;;;;;;;4.97;3.87;;;;;7.50;95587.00;;;;8316731;28;20706;-74
2023/04/25 01:17:26;;;;;;;7.27;4.17;;;;;7.50;95578.00;;;;8324446;28;20196;-76
2023/04/25 01:21:36;;;;;;;4.33;3.67;;;;;7.50;95583.00;;;;8332554;28;20225;-76
2023/04/25 01:25:41;;;;;;;3.70;3.40;;;;;7.60;95579.00;;;;8310241;28;20315;-74
2023/04/25 01:29:45;;;;;;;5.47;4.40;;;;;7.60;95574.00;;;;8317303;28;20216;-74
2023/04/25 01:33:50;;;;;;;7.13;4.00;;;;;7.60;95577.00;;;;8318826;28;20201;-74
2023/04/25 01:37:58;;;;;;;7.30;3.90;;;;;7.60;95579.00;;;;8317421;28;20662;-74
2023/04/25 01:42:03;;;;;;;5.40;4.23;;;;;7.60;95580.00;;;;8319139;28;20919;-74
2023/04/25 01:46:09;;;;;;;7.77;4.10;;;;;7.70;95587.00;;;;8328456;28;20282;-74
2023/04/25 01:50:20;;;;;;;8.47;4.87;;;;;7.70;95591.00;;;;8316639;28;20205;-75
2023/04/25 01:54:28;;;;;;;8.97;4.53;;;;;7.70;95582.00;;;;8321993;28;20582;-74
2023/04/25 01:58:31;;;;;;;6.87;4.63;;;;;7.70;95585.00;;;;8322599;28;20193;-74
2023/04/25 02:02:36;;;;;;;6.17;4.10;;;;;7.70;95575.00;;;;8323628;28;20252;-74
2023/04/25 02:06:42;;;;;;;6.63;4.13;;;;;7.60;95565.00;;;;8322742;28;20221;-76
2023/04/25 02:10:47;;;;;;;5.80;4.13;;;;;7.50;95570.00;;;;8324113;28;20201;-74
2023/04/25 02:14:50;;;;;;;10.60;4.57;;;;;7.50;95570.00;;;;8321568;28;20300;-75
2023/04/25 02:18:53;;;;;;;5.50;4.30;;;;;7.40;95571.00;;;;8316860;28;20194;-74
2023/04/25 02:22:59;;;;;;;6.47;4.53;;;;;7.40;95566.00;;;;8322432;28;20540;-77
2023/04/25 02:27:04;;;;;;;6.20;4.87;;;;;7.40;95560.00;;;;8331615;28;20291;-74
2023/04/25 02:31:09;;;;;;;5.67;4.30;;;;;7.40;95567.00;;;;8330413;28;20224;-74
2023/04/25 02:35:12;;;;;;;5.73;4.10;;;;;7.40;95559.00;;;;8321683;28;20288;-74
2023/04/25 02:39:16;;;;;;;6.40;4.20;;;;;7.40;95563.00;;;;8327270;28;20193;-75
2023/04/25 02:43:22;;;;;;;6.10;4.00;;;;;7.40;95561.00;;;;8332139;28;20201;-74
2023/04/25 02:47:25;;;;;;;8.23;4.10;;;;;7.40;95555.00;;;;8327748;28;20239;-73
2023/04/25 02:51:36;;;;;;;6.37;4.00;;;;;7.40;95548.00;;;;8330958;28;20288;-74
2023/04/25 02:55:39;;;;;;;7.03;3.97;;;;;7.40;95547.00;;;;8331718;28;20297;-74
2023/04/25 02:59:48;;;;;;;7.73;4.30;;;;;7.50;95547.00;;;;8332978;28;20201;-74
2023/04/25 03:03:54;;;;;;;5.73;3.80;;;;;7.50;95539.00;;;;8343166;22;20240;-74
2023/04/25 03:07:57;;;;;;;8.67;4.10;;;;;7.50;95531.00;;;;8319475;28;20244;-73
2023/04/25 03:12:01;;;;;;;5.57;3.90;;;;;7.50;95537.00;;;;8322260;28;20197;-74
2023/04/25 03:16:06;;;;;;;5.90;3.80;;;;;7.50;95524.00;;;;8319623;28;20205;-74
2023/04/25 03:20:12;;;;;;;5.40;3.93;;;;;7.50;95524.00;;;;8320739;28;20218;-74
2023/04/25 03:24:17;;;;;;;6.37;4.37;;;;;7.50;95520.00;;;;8323510;28;20201;-74
2023/04/25 03:28:20;;;;;;;6.60;4.83;;;;;7.50;95520.00;;;;8314743;28;20926;-73
2023/04/25 03:32:25;;;;;;;7.10;5.13;;;;;7.60;95526.00;;;;8311000;28;20262;-74
2023/04/25 03:36:28;;;;;;;5.60;4.10;;;;;7.60;95523.00;;;;8321124;28;20610;-74
2023/04/25 03:40:34;;;;;;;5.13;4.17;;;;;7.70;95530.00;;;;8313281;28;20259;-74
2023/04/25 03:44:38;;;;;;;4.97;4.20;;;;;7.70;95533.00;;;;8309686;28;20803;-74
2023/04/25 03:48:43;;;;;;;6.80;3.90;;;;;7.80;95535.00;;;;8312196;28;20311;-74
2023/04/25 03:52:47;;;;;;;7.87;4.10;;;;;7.80;95528.00;;;;8319631;28;20201;-74
2023/04/25 03:56:50;;;;;;;6.83;3.70;;;;;7.80;95524.00;;;;8320599;28;20359;-75
2023/04/25 04:00:53;;;;;;;5.97;4.40;;;;;7.80;95528.00;;;;8322256;28;20198;-74
2023/04/25 04:05:00;;;;;;;5.83;3.97;;;;;7.80;95526.00;;;;8289110;28;20210;-75
2023/04/25 04:09:06;;;;;;;5.07;4.00;;;;;7.90;95523.00;;;;8287716;28;20194;-74
2023/04/25 04:13:09;;;;;;;7.30;4.37;;;;;7.90;95527.00;;;;8286703;28;20230;-75
2023/04/25 04:17:17;;;;;;;7.17;3.70;;;;;8.00;95528.00;;;;8289324;28;20194;-75
2023/04/25 04:21:24;;;;;;;6.93;4.27;;;;;8.00;95520.00;;;;8287697;28;20198;-76
2023/04/25 04:25:27;;;;;;;6.80;4.23;;;;;8.10;95519.00;;;;8289467;28;20272;-78
2023/04/25 04:29:32;;;;;;;6.10;4.03;;;;;8.10;95521.00;;;;8287748;28;20567;-76
2023/04/25 04:33:36;;;;;;;4.03;3.60;;;;;8.20;95512.00;;;;8288460;28;20210;-77
2023/04/25 04:37:41;;;;;;;4.30;3.90;;;;;8.20;95512.00;;;;8270944;28;20221;-77
2023/04/25 04:41:44;;;;;;;6.80;3.90;;;;;8.10;95519.00;;;;8288368;28;20722;-77
2023/04/25 04:45:47;;;;;;;5.33;3.90;;;;;8.10;95520.00;;;;8287072;28;20226;-77
2023/04/25 04:49:51;;;;;;;4.70;3.70;;;;;8.00;95516.00;;;;8285207;28;20203;-76
2023/04/25 04:53:58;;;;;;;6.00;4.87;;;;;8.00;95515.00;;;;8285762;28;20206;-76
2023/04/25 04:58:01;;;;;;;5.63;3.90;;;;;7.90;95520.00;;;;8285511;28;20228;-75
2023/04/25 05:02:04;;;;;;;4.23;3.83;;;;;7.90;95520.00;;;;8265065;28;20234;-76
2023/04/25 05:06:08;;;;;;;7.97;4.27;;;;;7.80;95523.00;;;;8287002;28;20292;-74
2023/04/25 05:10:16;;;;;;;4.10;3.70;;;;;7.80;95525.00;;;;8283136;28;20289;-75
2023/04/25 05:14:19;;;;;;;7.10;4.20;;;;;7.90;95521.00;;;;8281267;28;20246;-75
2023/04/25 05:18:24;;;;;;;5.67;4.20;;;;;8.00;95519.00;;;;8286197;28;20229;-75
2023/04/25 05:22:29;;;;;;;8.93;4.67;;;;;8.10;95523.00;;;;8269177;28;20202;-73
2023/04/25 05:26:34;;;;;;;7.07;4.27;;;;;8.20;95513.00;;;;8286738;28;20745;-74
2023/04/25 05:30:38;;;;;;;4.63;3.33;;;;;8.50;95518.00;;;;8262950;28;20199;-75
2023/04/25 05:34:42;;;;;;;6.93;3.53;;;;;8.70;95518.00;;;;8268907;28;20253;-75
2023/04/25 05:38:45;;;;;;;4.78;3.90;;;;;9.00;95517.00;;;;8282368;28;20206;-75
2023/04/25 05:42:49;;;;;;;3.47;3.17;;;;;9.20;95513.00;;;;8288373;28;20202;-74
2023/04/25 05:46:52;;;;;;;5.00;3.65;;;;;9.40;95514.00;;;;8275949;28;20808;-76
2023/04/25 05:50:55;;;;;;;3.80;3.50;;;;;9.70;95521.00;;;;8272131;28;20205;-75
2023/04/25 05:55:01;;;;;;;3.73;3.43;;;;;10.00;95523.00;;;;8283798;28;20187;-74
2023/04/25 05:59:10;;;;;;;3.70;3.38;;;;;10.10;95523.00;;;;8270802;28;20195;-76
2023/04/25 06:03:14;;;;;;;4.07;3.67;;;;;10.20;95522.00;;;;8272664;28;20226;-76
2023/04/25 06:07:25;;;;;;;4.53;3.40;;;;;10.40;95522.00;;;;8280548;28;20262;-75
2023/04/25 06:11:28;;;;;;;5.57;3.30;;;;;10.50;95519.00;;;;8274078;28;20191;-75
2023/04/25 06:15:33;;;;;;;4.43;3.58;;;;;10.70;95510.00;;;;8283417;28;20190;-75
2023/04/25 06:19:38;;;;;;;6.13;3.80;;;;;10.80;95506.00;;;;8283753;28;20918;-74
2023/04/25 06:23:42;;;;;;;3.97;3.58;;;;;10.90;95520.00;;;;8272144;28;20613;-75
2023/04/25 06:27:49;;;;;;;5.10;3.73;;;;;11.00;95524.00;;;;8279997;28;20364;-74
2023/04/25 06:31:54;;;;;;;4.30;3.75;;;;;10.90;95531.00;;;;8263890;28;20252;-74
2023/04/25 06:35:57;;;;;;;4.85;3.90;;;;;11.10;95521.00;;;;8286836;28;20204;-74
2023/04/25 06:40:00;;;;;;;7.00;3.85;;;;;11.30;95527.00;;;;8286830;28;20206;-74
2023/04/25 06:44:07;;;;;;;6.07;3.63;;;;;11.40;95533.00;;;;8284962;28;20198;-74
2023/04/25 06:48:15;;;;;;;6.78;3.83;;;;;11.60;95531.00;;;;8285944;28;20235;-74
2023/04/25 06:52:18;;;;;;;4.05;3.63;;;;;12.00;95530.00;;;;8285726;28;20211;-74
2023/04/25 06:56:23;;;;;;;6.40;4.05;;;;;12.50;95521.00;;;;8282847;28;20202;-75
2023/04/25 07:00:26;;;;;;;6.28;4.07;;;;;12.40;95534.00;;;;8285261;28;20202;-75
2023/04/25 07:04:34;;;;;;;3.97;3.58;;;;;12.10;95533.00;;;;8282830;28;20231;-75
2023/04/25 07:08:37;;;;;;;4.50;3.42;;;;;12.10;95540.00;;;;8283852;28;20321;-75
2023/04/25 07:12:43;;;;;;;4.82;3.60;;;;;12.30;95540.00;;;;8273866;28;20263;-75
2023/04/25 07:16:46;;;;;;;5.70;3.78;;;;;12.60;95536.00;;;;8284989;28;20212;-75
2023/04/25 07:20:51;;;;;;;6.25;3.58;;;;;13.10;95533.00;;;;8290991;28;20215;-75
2023/04/25 07:24:56;;;;;;;4.32;3.42;;;;;13.80;95543.00;;;;8291223;28;20781;-75
2023/04/25 07:28:59;;;;;;;3.40;3.10;;;;;14.10;95531.00;;;;8289185;28;20233;-76
2023/04/25 07:33:02;;;;;;;5.22;3.55;;;;;14.60;95532.00;;;;8287426;28;20346;-76
2023/04/25 07:37:06;;;;;;;3.30;3.00;;;;;14.60;95531.00;;;;8286992;28;20670;-75
2023/04/25 07:41:11;;;;;;;4.78;3.45;;;;;15.10;95541.00;;;;8284564;28;20202;-75
2023/04/25 07:45:18;;;;;;;3.35;3.05;;;;;16.20;95540.00;;;;8271051;28;20203;-75
2023/04/25 07:49:21;;;;;;;3.88;3.58;;;;;16.30;95536.00;;;;8273730;28;20272;-75
2023/04/25 07:53:28;;;;;;;4.65;3.15;;;;;15.80;95539.00;;;;8273085;28;20228;-75
2023/04/25 07:57:34;;;;;;;3.00;2.78;;;;;15.20;95537.00;;;;8290884;28;20210;-75
2023/04/25 08:01:38;;;;;;;3.50;2.97;;;;;15.30;95539.00;;;;8290626;28;20237;-76
2023/04/25 08:05:41;;;;;;;3.92;3.10;;;;;16.20;95535.00;;;;8289273;28;20202;-76
2023/04/25 08:09:49;;;;;;;4.65;3.15;;;;;16.60;95536.00;;;;8288152;28;20613;-76
2023/04/25 08:13:54;;;;;;;3.42;3.13;;;;;16.90;95532.00;;;;8281066;28;20202;-76
2023/04/25 08:17:59;;;;;;;4.05;3.47;;;;;17.00;95534.00;;;;8289666;28;20209;-75
2023/04/25 08:22:04;;;;;;;3.35;3.03;;;;;16.70;95540.00;;;;8281102;28;20334;-76
2023/04/25 08:26:10;;;;;;;3.45;3.05;;;;;16.10;95548.00;;;;8278578;28;20248;-75
2023/04/25 08:30:14;;;;;;;3.10;2.90;;;;;16.50;95550.00;;;;8286141;28;20603;-76
2023/04/25 08:34:17;;;;;;;4.53;3.30;;;;;17.70;95561.00;;;;8278516;28;20194;-75
2023/04/25 08:38:22;;;;;;;3.40;3.13;;;;;17.60;95560.00;;;;8284541;28;20202;-76
2023/04/25 08:42:29;;;;;;;3.95;3.55;;;;;17.70;95578.00;;;;8283543;28;20202;-76
2023/04/25 08:46:50;;;;;;;3.75;3.45;;;;;16.90;95582.00;;;;8269054;28;20203;-76
2023/04/25 08:50:58;;;;;;;4.05;3.55;;;;;15.40;95602.00;;;;8281085;28;20202;-75
2023/04/25 08:55:05;;;;;;;4.18;3.78;;;;;14.10;95594.00;;;;8278893;28;20289;-77
2023/04/25 08:59:13;;;;;;;4.20;3.10;;;;;13.00;95598.00;;;;8285713;28;20206;-75
2023/04/25 09:03:16;;;;;;;4.28;3.20;;;;;12.30;95602.00;;;;8279513;28;20237;-76
2023/04/25 09:07:22;;;;;;;3.58;3.28;;;;;12.70;95594.00;;;;8283389;28;20228;-78
2023/04/25 09:11:25;;;;;;;4.75;4.05;;;;;14.20;95599.00;;;;8282000;28;20251;-79
2023/04/25 09:15:30;;;;;;;5.38;3.78;;;;;14.50;95597.00;;;;8281317;28;20199;-76
2023/04/25 09:19:35;;;;;;;4.40;4.00;;;;;14.00;95603.00;;;;8282243;28;20202;-74
2023/04/25 09:23:43;;;;;;;3.63;3.33;;;;;13.40;95619.00;;;;8282429;28;20229;-73
2023/04/25 09:27:55;;;;;;;4.28;3.33;;;;;13.10;95622.00;;;;8286655;28;20225;-74
2023/04/25 09:32:17;;;;;;;3.92;3.53;;;;;13.00;95630.00;;;;8284434;28;20828;-75
2023/04/25 09:36:30;;;;;;;3.20;2.90;;;;;13.00;95629.00;;;;8274261;28;20226;-75
2023/04/25 09:40:34;;;;;;;3.45;3.15;;;;;13.20;95632.00;;;;8275794;28;20208;-75
2023/04/25 09:44:37;;;;;;;3.97;3.55;;;;;13.70;95639.00;;;;8287392;28;20208;-75
2023/04/25 09:48:49;;;;;;;4.28;3.80;;;;;13.80;95631.00;;;;8279749;28;20231;-75
2023/04/25 09:53:12;;;;;;;6.07;4.45;;;;;14.60;95636.00;;;;8274612;28;20674;-76
2023/04/25 09:57:17;;;;;;;6.07;4.70;;;;;15.40;95643.00;;;;8285722;28;20205;-75
2023/04/25 10:01:21;;;;;;;6.60;4.28;;;;;14.50;95649.00;;;;8288041;28;20205;-74
2023/04/25 10:05:33;;;;;;;7.32;5.82;;;;;13.80;95644.00;;;;8305914;28;20271;-74
2023/04/25 10:09:39;;;;;;;7.40;5.25;;;;;13.60;95646.00;;;;8300167;28;20595;-74
2023/04/25 10:13:43;;;;;;;8.48;4.93;;;;;13.60;95653.00;;;;8292318;28;20279;-75
2023/04/25 10:17:46;;;;;;;7.85;4.53;;;;;13.90;95663.00;;;;8299993;28;20201;-74
2023/04/25 10:22:03;;;;;;;7.50;4.97;;;;;14.00;95659.00;;;;8296629;28;20212;-75
2023/04/25 10:26:07;;;;;;;5.50;4.43;;;;;14.10;95656.00;;;;8288010;28;20202;-75
2023/04/25 10:30:14;;;;;;;4.72;3.90;;;;;14.80;95655.00;;;;8286077;28;20650;-75
2023/04/25 10:34:19;;;;;;;2.83;2.60;;;;;16.10;95647.00;;;;8286517;28;20198;-75
2023/04/25 10:38:27;;;;;;;2.92;2.72;;;;;16.80;95642.00;;;;8287401;28;20190;-75
2023/04/25 10:42:31;;;;;;;4.55;2.72;;;;;17.90;95656.00;;;;8288879;28;20194;-76
2023/04/25 10:46:37;;;;;;;3.15;2.85;;;;;17.60;95673.00;;;;8296329;28;20277;-76
2023/04/25 10:50:44;;;;;;;3.03;2.83;;;;;16.60;95670.00;;;;8298800;28;20241;-75
2023/04/25 10:54:53;;;;;;;4.72;2.75;;;;;16.20;95666.00;;;;8296024;28;20197;-75
2023/04/25 10:59:09;;;;;;;2.60;2.20;;;;;16.30;95663.00;;;;8282238;28;20869;-75
2023/04/25 11:03:17;;;;;;;2.80;2.45;;;;;16.50;95664.00;;;;8297889;28;20225;-74
2023/04/25 11:07:27;;;;;;;3.15;2.85;;;;;17.60;95655.00;;;;8300779;28;20209;-75
2023/04/25 11:11:37;;;;;;;3.75;2.70;;;;;17.50;95659.00;;;;8297818;28;20236;-75
2023/04/25 11:15:40;;;;;;;3.22;2.65;;;;;16.70;95658.00;;;;8296206;28;20210;-74
2023/04/25 11:19:44;;;;;;;3.65;3.00;;;;;16.60;95664.00;;;;8298022;28;20206;-75
2023/04/25 11:23:47;;;;;;;3.03;2.75;;;;;15.70;95659.00;;;;8306150;28;20213;-75
2023/04/25 11:27:53;;;;;;;3.63;2.90;;;;;15.20;95657.00;;;;8300845;28;20226;-75
2023/04/25 11:31:57;;;;;;;4.72;3.15;;;;;16.50;95652.00;;;;8300479;28;20202;-75
2023/04/25 11:36:03;;;;;;;2.78;2.58;;;;;17.30;95658.00;;;;8306684;28;20241;-75
2023/04/25 11:40:08;;;;;;;2.85;2.65;;;;;18.10;95650.00;;;;8305880;28;20206;-75
2023/04/25 11:44:18;;;;;;;3.63;2.95;;;;;17.80;95656.00;;;;8312675;28;20201;-75
2023/04/25 11:48:22;;;;;;;3.70;3.15;;;;;18.60;95639.00;;;;8301895;28;20217;-75
2023/04/25 11:52:37;;;;;;;2.78;2.50;;;;;18.70;95655.00;;;;8306279;28;20283;-75
2023/04/25 11:56:44;;;;;;;2.97;2.70;;;;;18.10;95653.00;;;;8288654;28;20202;-75
2023/04/25 12:00:48;;;;;;;3.15;2.80;;;;;17.20;95666.00;;;;8290429;28;20567;-74
2023/04/25 12:05:00;;;;;;;2.58;2.20;;;;;16.10;95663.00;;;;8285222;28;20232;-75
2023/04/25 12:09:30;;;;;;;3.30;2.92;;;;;15.40;95668.00;;;;8288040;28;20225;-75
2023/04/25 12:13:33;;;;;;;3.15;2.85;;;;;15.20;95667.00;;;;8280760;28;20207;-75
2023/04/25 12:17:38;;;;;;;5.28;2.80;;;;;15.40;95673.00;;;;8282653;28;20844;-75
2023/04/25 12:21:52;;;;;;;4.38;2.60;;;;;15.30;95661.00;;;;8271394;28;20588;-74
2023/04/25 12:26:03;;;;;;;2.67;2.42;;;;;15.50;95654.00;;;;8282428;28;20209;-75
2023/04/25 12:30:10;;;;;;;2.40;2.20;;;;;15.80;95662.00;;;;8286677;28;20226;-75
2023/04/25 12:34:18;;;;;;;2.83;2.63;;;;;16.10;95652.00;;;;8286503;28;20293;-76
2023/04/25 12:38:27;;;;;;;3.65;2.42;;;;;16.20;95668.00;;;;8284751;28;20940;-76
2023/04/25 12:42:30;;;;;;;2.60;2.40;;;;;16.20;95668.00;;;;8285722;28;20860;-76
2023/04/25 12:46:36;;;;;;;3.58;2.72;;;;;16.20;95681.00;;;;8284876;28;20201;-75
2023/04/25 12:50:43;;;;;;;3.08;2.75;;;;;16.20;95686.00;;;;8286461;28;20226;-76
2023/04/25 12:54:46;;;;;;;7.22;3.75;;;;;15.80;95679.00;;;;8282967;28;20257;-76
2023/04/25 12:58:49;;;;;;;4.82;2.95;;;;;15.40;95686.00;;;;8283155;28;20721;-75
2023/04/25 13:02:53;;;;;;;9.00;3.60;;;;;15.10;95696.00;;;;8286373;28;20749;-75
2023/04/25 13:06:59;;;;;;;4.97;3.50;;;;;14.90;95700.00;;;;8284150;28;20669;-74
2023/04/25 13:11:05;;;;;;;4.07;3.55;;;;;14.90;95707.00;;;;8282728;28;20250;-75
2023/04/25 13:15:11;;;;;;;5.53;3.60;;;;;15.00;95704.00;;;;8282165;28;20195;-75
2023/04/25 13:19:14;;;;;;;3.40;3.10;;;;;14.90;95703.00;;;;8287235;28;20205;-76
2023/04/25 13:23:21;;;;;;;7.75;3.50;;;;;14.60;95715.00;;;;8275799;28;20226;-76
2023/04/25 13:27:40;;;;;;;5.53;3.00;;;;;13.60;95711.00;;;;8284780;28;20214;-77
2023/04/25 13:31:43;;;;;;;4.78;2.65;;;;;13.20;95714.00;;;;8283311;28;20234;-76
2023/04/25 13:35:53;;;;;;;5.00;2.70;;;;;13.30;95722.00;;;;8283865;28;20285;-77
2023/04/25 13:39:57;;;;;;;3.45;2.60;;;;;13.60;95721.00;;;;8285932;28;20206;-77
2023/04/25 13:44:00;;;;;;;2.35;2.15;;;;;13.80;95725.00;;;;8284207;28;20711;-76
2023/04/25 13:48:04;;;;;;;9.60;2.67;;;;;14.00;95722.00;;;;8277336;28;20197;-77
2023/04/25 13:52:07;;;;;;;3.33;2.45;;;;;14.50;95722.00;;;;8284800;28;20233;-75
2023/04/25 13:56:14;;;;;;;2.53;2.33;;;;;14.50;95725.00;;;;8279609;28;20677;-77
2023/04/25 14:00:18;;;;;;;2.30;2.10;;;;;14.50;95719.00;;;;8282599;28;20268;-77
2023/04/25 14:04:22;;;;;;;2.33;2.13;;;;;15.40;95725.00;;;;8305337;28;20568;-77
2023/04/25 14:08:28;;;;;;;2.17;2.00;;;;;16.30;95732.00;;;;8286103;28;20286;-77
2023/04/25 14:12:33;;;;;;;3.80;2.20;;;;;16.10;95739.00;;;;8307249;28;20731;-77
2023/04/25 14:16:37;;;;;;;2.58;2.10;;;;;16.10;95736.00;;;;8305819;28;20280;-77
2023/04/25 14:20:42;;;;;;;2.15;1.98;;;;;15.70;95746.00;;;;8309932;28;20275;-77
2023/04/25 14:24:45;;;;;;;2.25;1.95;;;;;15.30;95759.00;;;;8312096;28;20721;-77
2023/04/25 14:28:49;;;;;;;3.20;1.50;;;;;14.70;95764.00;;;;8317200;28;20293;-77
2023/04/25 14:32:52;;;;;;;1.85;1.70;;;;;14.40;95766.00;;;;8296211;28;20644;-77
2023/04/25 14:36:56;;;;;;;2.28;1.67;;;;;14.10;95764.00;;;;8299909;28;20201;-77
2023/04/25 14:40:59;;;;;;;1.67;1.58;;;;;13.90;95770.00;;;;8296941;28;20225;-76
2023/04/25 14:45:08;;;;;;;1.60;1.60;;;;;13.80;95769.00;;;;8291439;28;20216;-76
2023/04/25 14:49:12;;;;;;;2.25;1.67;;;;;13.90;95777.00;;;;8304972;28;20225;-76
2023/04/25 14:53:19;;;;;;;2.45;2.00;;;;;14.10;95779.00;;;;8298237;28;20751;-77
2023/04/25 14:57:22;;;;;;;3.65;1.77;;;;;14.20;95775.00;;;;8293368;28;20567;-77
2023/04/25 15:01:27;;;;;;;1.52;1.52;;;;;14.30;95776.00;;;;8296340;28;20212;-77
2023/04/25 15:05:30;;;;;;;2.08;1.88;;;;;14.50;95779.00;;;;8288977;28;20577;-77
2023/04/25 15:09:33;;;;;;;2.20;1.80;;;;;14.10;95784.00;;;;8290045;28;20283;-76
2023/04/25 15:13:40;;;;;;;1.95;1.75;;;;;13.80;95789.00;;;;8291063;28;20208;-77
2023/04/25 15:17:45;;;;;;;2.08;1.70;;;;;13.80;95794.00;;;;8279495;28;20213;-77
2023/04/25 15:21:51;;;;;;;1.92;1.83;;;;;14.00;95799.00;;;;8287259;28;20292;-76
2023/04/25 15:25:54;;;;;;;2.42;2.05;;;;;13.90;95799.00;;;;8284428;28;20274;-75
2023/04/25 15:29:58;;;;;;;1.90;1.80;;;;;13.90;95805.00;;;;8284376;28;20312;-78
2023/04/25 15:34:07;;;;;;;2.03;1.90;;;;;13.70;95805.00;;;;8287901;28;20213;-78
2023/04/25 15:38:13;;;;;;;2.35;2.15;;;;;13.40;95819.00;;;;8275969;28;20280;-77
2023/04/25 15:42:16;;;;;;;2.28;2.08;;;;;13.30;95822.00;;;;8288665;28;20233;-77
2023/04/25 15:46:20;;;;;;;2.42;2.22;;;;;13.30;95824.00;;;;8289551;28;20713;-77
2023/04/25 15:50:25;;;;;;;2.85;2.05;;;;;13.20;95824.00;;;;8286009;28;20224;-77
2023/04/25 15:54:30;;;;;;;2.42;2.17;;;;;13.40;95821.00;;;;8284325;28;20232;-78
2023/04/25 15:58:36;;;;;;;2.88;2.05;;;;;13.50;95832.00;;;;8287067;28;20234;-77
2023/04/25 16:02:42;;;;;;;2.40;2.08;;;;;13.30;95838.00;;;;8285083;28;20228;-77
2023/04/25 16:06:47;;;;;;;4.75;2.30;;;;;13.20;95837.00;;;;8312239;28;20220;-77
2023/04/25 16:10:52;;;;;;;3.67;2.20;;;;;13.20;95840.00;;;;8278746;28;20228;-78
2023/04/25 16:14:57;;;;;;;2.35;2.00;;;;;13.20;95848.00;;;;8295964;28;20615;-78
2023/04/25 16:19:01;;;;;;;2.88;2.22;;;;;13.20;95843.00;;;;8303851;28;20202;-78
2023/04/25 16:23:08;;;;;;;2.72;2.38;;;;;13.10;95846.00;;;;8313114;28;20211;-77
2023/04/25 16:27:13;;;;;;;2.78;2.28;;;;;13.10;95855.00;;;;8306265;28;20255;-76
2023/04/25 16:31:16;;;;;;;2.80;2.45;;;;;12.90;95855.00;;;;8305726;28;20236;-78
2023/04/25 16:35:22;;;;;;;3.17;2.25;;;;;12.80;95853.00;;;;8312383;28;20235;-78
2023/04/25 16:39:27;;;;;;;4.10;2.42;;;;;12.60;95863.00;;;;8302376;28;20205;-78
2023/04/25 16:43:30;;;;;;;2.90;2.30;;;;;12.40;95865.00;;;;8302069;28;20193;-77
2023/04/25 16:47:34;;;;;;;2.70;2.40;;;;;12.20;95873.00;;;;8313578;28;20249;-78
2023/04/25 16:51:37;;;;;;;2.30;2.10;;;;;12.10;95872.00;;;;8308881;28;20730;-78
2023/04/25 16:55:42;;;;;;;2.40;2.20;;;;;12.40;95881.00;;;;8297475;28;20209;-78
2023/04/25 16:59:50;;;;;;;2.92;2.55;;;;;13.30;95888.00;;;;8296251;28;20698;-78
2023/04/25 17:03:56;;;;;;;2.53;2.33;;;;;13.90;95896.00;;;;8271368;28;20324;-78
2023/04/25 17:08:02;;;;;;;2.75;2.50;;;;;13.90;95895.00;;;;8288330;28;20783;-78
2023/04/25 17:12:07;;;;;;;4.93;2.47;;;;;14.00;95891.00;;;;8288388;28;20235;-78
2023/04/25 17:16:12;;;;;;;2.65;2.40;;;;;13.70;95897.00;;;;8288258;28;20264;-78
2023/04/25 17:20:16;;;;;;;4.20;2.40;;;;;13.20;95896.00;;;;8285344;28;20717;-78
2023/04/25 17:24:20;;;;;;;2.70;2.22;;;;;13.20;95898.00;;;;8287195;28;20252;-78
2023/04/25 17:28:25;;;;;;;3.00;2.70;;;;;12.60;95895.00;;;;8270401;28;20268;-78
2023/04/25 17:32:31;;;;;;;4.70;2.70;;;;;12.10;95901.00;;;;8288113;28;20224;-77
2023/04/25 17:36:34;;;;;;;4.65;2.97;;;;;11.60;95906.00;;;;8287330;28;20198;-78
2023/04/25 17:40:39;;;;;;;5.68;2.97;;;;;11.20;95920.00;;;;8284638;28;20209;-78
2023/04/25 17:44:43;;;;;;;5.60;2.85;;;;;11.00;95921.00;;;;8288801;28;20202;-78
2023/04/25 17:48:47;;;;;;;6.72;3.45;;;;;10.80;95922.00;;;;8286053;28;20206;-78
2023/04/25 17:52:51;;;;;;;3.53;3.03;;;;;10.60;95926.00;;;;8282171;28;21005;-76
2023/04/25 17:56:54;;;;;;;3.15;2.47;;;;;10.50;95922.00;;;;8279208;28;20195;-78
2023/04/25 18:00:59;;;;;;;3.95;3.10;;;;;10.40;95929.00;;;;8280637;28;20202;-77
2023/04/25 18:05:07;;;;;;;4.90;3.17;;;;;10.20;95938.00;;;;8283642;28;20237;-75
2023/04/25 18:09:16;;;;;;;5.50;3.47;;;;;10.20;95942.00;;;;8284131;28;20198;-76
2023/04/25 18:13:21;;;;;;;5.63;3.67;;;;;10.10;95945.00;;;;8276587;28;20319;-76
2023/04/25 18:17:29;;;;;;;6.97;3.60;;;;;10.00;95960.00;;;;8282104;28;21671;-78
2023/04/25 18:21:33;;;;;;;3.92;3.33;;;;;9.90;95965.00;;;;8279414;28;20195;-78
2023/04/25 18:25:36;;;;;;;5.07;3.28;;;;;9.80;95973.00;;;;8281305;28;20638;-78
2023/04/25 18:29:44;;;;;;;3.85;2.95;;;;;9.80;95988.00;;;;8280893;28;20268;-78
2023/04/25 18:33:49;;;;;;;8.47;3.47;;;;;9.70;95987.00;;;;8269259;28;20595;-77
2023/04/25 18:37:53;;;;;;;5.00;2.90;;;;;9.70;96004.00;;;;8284530;28;20294;-77
2023/04/25 18:41:59;;;;;;;3.22;2.65;;;;;9.70;96013.00;;;;8282539;28;20717;-78
2023/04/25 18:46:08;;;;;;;5.13;3.00;;;;;9.70;96019.00;;;;8273017;28;20704;-80
2023/04/25 18:50:19;;;;;;;4.57;2.80;;;;;9.70;96032.00;;;;8277935;28;20206;-80
2023/04/25 18:54:22;;;;;;;6.20;3.07;;;;;9.80;96048.00;;;;8285812;28;20201;-80
2023/04/25 18:58:27;;;;;;;4.40;3.13;;;;;9.80;96052.00;;;;8285120;28;20258;-81
2023/04/25 19:02:31;;;;;;;5.40;3.08;;;;;9.80;96054.00;;;;8284400;28;20230;-82
2023/04/25 19:06:41;;;;;;;4.80;2.83;;;;;9.70;96047.00;;;;8287623;28;20199;-79
2023/04/25 19:10:44;;;;;;;3.88;2.95;;;;;9.60;96059.00;;;;8287302;28;20198;-82
2023/04/25 19:14:49;;;;;;;7.13;2.97;;;;;9.50;96045.00;;;;8288139;28;20595;-82
2023/04/25 19:19:00;;;;;;;3.92;2.90;;;;;9.30;96043.00;;;;8282758;28;20238;-81
2023/04/25 19:23:07;;;;;;;3.50;2.95;;;;;9.20;96057.00;;;;8290541;28;20199;-82
2023/04/25 19:27:10;;;;;;;3.47;2.40;;;;;9.10;96056.00;;;;8289514;28;20206;-81
2023/04/25 19:31:16;;;;;;;4.63;2.70;;;;;9.00;96058.00;;;;8288606;28;20688;-82
2023/04/25 19:35:21;;;;;;;3.47;3.03;;;;;8.80;96051.00;;;;8286543;28;20689;-78
2023/04/25 19:39:33;;;;;;;4.10;3.10;;;;;8.60;96059.00;;;;8289338;28;20614;-81
2023/04/25 19:43:37;;;;;;;3.70;2.87;;;;;8.50;96069.00;;;;8289589;28;20207;-79
2023/04/25 19:47:41;;;;;;;4.00;3.20;;;;;8.30;96071.00;;;;8284645;28;20198;-79
2023/04/25 19:51:45;;;;;;;3.97;2.83;;;;;8.20;96071.00;;;;8282526;28;20358;-80
2023/04/25 19:55:51;;;;;;;3.20;2.90;;;;;8.00;96067.00;;;;8287089;28;20202;-80
2023/04/25 19:59:57;;;;;;;5.63;3.20;;;;;7.70;96079.00;;;;8290102;28;20198;-81
2023/04/25 20:04:00;;;;;;;15.70;3.13;;;;;7.40;96082.00;;;;8296675;28;20229;-80
2023/04/25 20:08:05;;;;;;;4.33;3.00;;;;;7.20;96081.00;;;;8306966;28;20195;-79
2023/04/25 20:12:10;;;;;;;3.47;3.00;;;;;7.10;96085.00;;;;8305342;28;20268;-78
2023/04/25 20:16:24;;;;;;;7.13;3.00;;;;;7.10;96083.00;;;;8291137;28;20190;-77
2023/04/25 20:20:27;;;;;;;6.50;3.23;;;;;7.20;96099.00;;;;8297280;28;20631;-77
2023/04/25 20:24:36;;;;;;;5.23;3.20;;;;;7.30;96102.00;;;;8290422;28;20194;-78
2023/04/25 20:28:41;;;;;;;8.37;3.63;;;;;7.40;96096.00;;;;8286378;28;20807;-78
2023/04/25 20:32:46;;;;;;;6.37;3.60;;;;;7.60;96096.00;;;;8290736;28;20229;-77
2023/04/25 20:36:52;;;;;;;5.67;3.13;;;;;7.70;96096.00;;;;8294628;28;20288;-78